createdAt,value
2023-05-19T00:01:27.277Z,11.94
2023-05-19T00:03:26.988Z,11.86
2023-05-19T00:05:27.269Z,11.87
2023-05-19T00:08:48.616Z,11.8
2023-05-19T00:10:48.783Z,11.78
2023-05-19T00:12:48.583Z,11.89
2023-05-19T00:14:48.620Z,11.88
2023-05-19T00:16:48.613Z,11.96
2023-05-19T00:18:48.590Z,11.9
2023-05-19T00:20:48.657Z,11.85
2023-05-19T00:23:25.909Z,11.83
2023-05-19T00:25:26.231Z,11.8
2023-05-19T00:27:26.041Z,11.64
2023-05-19T00:29:28.029Z,11.73
2023-05-19T00:31:25.818Z,11.82
2023-05-19T00:33:25.803Z,11.9
2023-05-19T00:35:25.806Z,11.86
2023-05-19T00:38:42.073Z,11.83
2023-05-19T00:40:42.075Z,11.83
2023-05-19T00:42:42.164Z,11.89
2023-05-19T00:44:42.413Z,11.87
2023-05-19T00:46:42.108Z,11.84
2023-05-19T00:48:42.039Z,11.72
2023-05-19T00:50:42.028Z,11.77
2023-05-19T00:54:31.102Z,11.65
2023-05-19T00:56:31.298Z,11.67
2023-05-19T00:58:31.252Z,11.63
2023-05-19T01:00:31.328Z,11.55
2023-05-19T01:02:31.175Z,11.51
2023-05-19T01:04:31.101Z,11.4
2023-05-19T01:06:31.055Z,11.26
2023-05-19T01:09:19.440Z,11.32
2023-05-19T01:11:19.370Z,11.37
2023-05-19T01:13:19.504Z,11.39
2023-05-19T01:15:19.434Z,11.34
2023-05-19T01:17:19.370Z,11.38
2023-05-19T01:19:19.383Z,11.46
2023-05-19T01:21:19.611Z,11.48
2023-05-19T01:24:49.954Z,11.41
2023-05-19T01:26:49.936Z,11.35
2023-05-19T01:28:49.976Z,11.36
2023-05-19T01:30:49.937Z,11.31
2023-05-19T01:32:49.971Z,11.29
2023-05-19T01:34:50.045Z,11.24
2023-05-19T01:36:49.988Z,11.17
2023-05-19T01:39:35.171Z,11.35
2023-05-19T01:41:35.119Z,11.3
2023-05-19T01:43:35.182Z,11.28
2023-05-19T01:45:35.654Z,11.34
2023-05-19T01:47:35.314Z,11.17
2023-05-19T01:49:35.364Z,11.24
2023-05-19T01:51:35.152Z,11.18
2023-05-19T01:55:05.415Z,11.25
2023-05-19T01:57:05.439Z,11.2
2023-05-19T01:59:05.699Z,11.19
2023-05-19T02:01:05.660Z,11.22
2023-05-19T02:03:05.399Z,11.13
2023-05-19T02:05:05.665Z,11.16
2023-05-19T02:07:05.562Z,11.1
2023-05-19T02:09:52.293Z,11.21
2023-05-19T02:11:52.265Z,11.2
2023-05-19T02:13:52.453Z,11.18
2023-05-19T02:15:52.361Z,11.12
2023-05-19T02:17:52.364Z,11.13
2023-05-19T02:19:52.273Z,11.03
2023-05-19T02:21:52.278Z,11.05
2023-05-19T02:24:59.360Z,11.08
2023-05-19T02:26:59.310Z,11.13
2023-05-19T02:28:59.354Z,11.14
2023-05-19T02:30:59.367Z,11.1
2023-05-19T02:32:59.346Z,11.07
2023-05-19T02:34:59.302Z,11.12
2023-05-19T02:36:59.332Z,11.11
2023-05-19T02:40:44.750Z,11.12
2023-05-19T02:42:44.724Z,11.15
2023-05-19T02:44:44.753Z,11.1
2023-05-19T02:46:44.815Z,11.03
2023-05-19T02:48:44.755Z,11.03
2023-05-19T02:50:44.762Z,11
2023-05-19T02:52:44.706Z,11.06
2023-05-19T02:55:48.291Z,11.09
2023-05-19T02:57:48.293Z,11.04
2023-05-19T02:59:48.286Z,11.04
2023-05-19T03:01:48.470Z,11
2023-05-19T03:03:48.403Z,10.94
2023-05-19T03:05:48.276Z,10.82
2023-05-19T03:07:48.266Z,10.94
2023-05-19T03:10:51.248Z,10.94
2023-05-19T03:12:51.224Z,10.93
2023-05-19T03:14:51.263Z,10.9
2023-05-19T03:16:51.298Z,10.93
2023-05-19T03:18:51.298Z,10.91
2023-05-19T03:20:51.258Z,10.89
2023-05-19T03:22:51.225Z,10.92
2023-05-19T03:25:47.175Z,10.9
2023-05-19T03:27:47.174Z,10.76
2023-05-19T03:29:47.163Z,10.86
2023-05-19T03:31:47.149Z,10.94
2023-05-19T03:33:47.128Z,10.97
2023-05-19T03:35:47.307Z,11.01
2023-05-19T03:37:47.120Z,11.06
2023-05-19T03:40:55.057Z,11.11
2023-05-19T03:42:55.028Z,10.99
2023-05-19T03:44:55.030Z,11.15
2023-05-19T03:46:55.078Z,11.13
2023-05-19T03:48:55.023Z,11.14
2023-05-19T03:50:55.104Z,11.29
2023-05-19T03:52:55.020Z,11.31
2023-05-19T03:55:40.976Z,11.29
2023-05-19T03:57:40.957Z,11.4
2023-05-19T03:59:40.999Z,11.46
2023-05-19T04:01:40.934Z,11.61
2023-05-19T04:03:41.085Z,11.72
2023-05-19T04:05:41.283Z,11.74
2023-05-19T04:07:41.237Z,11.81
2023-05-19T04:09:41.203Z,12
2023-05-19T04:10:50.326Z,12.04
2023-05-19T04:12:50.352Z,12.09
2023-05-19T04:14:50.331Z,12.29
2023-05-19T04:16:50.351Z,12.59
2023-05-19T04:18:50.370Z,12.97
2023-05-19T04:20:50.356Z,14.25
2023-05-19T04:22:50.348Z,16.21
2023-05-19T04:24:50.321Z,15.5
2023-05-19T04:26:47.636Z,15.83
2023-05-19T04:28:47.650Z,15.33
2023-05-19T04:30:47.676Z,15.73
2023-05-19T04:32:47.662Z,17.38
2023-05-19T04:34:47.657Z,18.89
2023-05-19T04:36:47.646Z,19.58
2023-05-19T04:38:47.732Z,20.14
2023-05-19T04:41:41.419Z,21.2
2023-05-19T04:43:41.420Z,21.68
2023-05-19T04:45:41.395Z,21.22
2023-05-19T04:47:41.425Z,22.54
2023-05-19T04:49:41.402Z,23.59
2023-05-19T04:51:41.605Z,23.96
2023-05-19T04:53:41.423Z,23.92
2023-05-19T04:56:35.579Z,21.36
2023-05-19T04:58:35.500Z,20.02
2023-05-19T05:00:35.687Z,19.55
2023-05-19T05:02:35.525Z,20.44
2023-05-19T05:04:35.494Z,21.15
2023-05-19T05:06:35.497Z,20.89
2023-05-19T05:08:35.497Z,20.95
2023-05-19T05:11:23.617Z,21.04
2023-05-19T05:13:23.863Z,21.26
2023-05-19T05:15:23.741Z,21.32
2023-05-19T05:17:23.929Z,20.47
2023-05-19T05:19:24.139Z,20.85
2023-05-19T05:21:23.890Z,21.03
2023-05-19T05:23:24.102Z,21.12
2023-05-19T05:25:23.993Z,21
2023-05-19T05:27:28.320Z,21.11
2023-05-19T05:29:28.671Z,20.36
2023-05-19T05:31:28.331Z,20.9
2023-05-19T05:33:28.429Z,20.94
2023-05-19T05:35:28.314Z,21.08
2023-05-19T05:37:28.374Z,20.75
2023-05-19T05:39:28.457Z,20.67
2023-05-19T05:42:02.635Z,20.73
2023-05-19T05:44:02.604Z,20.56
2023-05-19T05:46:02.670Z,20.97
2023-05-19T05:48:02.718Z,20.61
2023-05-19T05:50:02.663Z,21.05
2023-05-19T05:52:06.060Z,21.16
2023-05-19T05:54:02.597Z,20.96
2023-05-19T05:57:26.736Z,20.15
2023-05-19T05:59:26.748Z,19.53
2023-05-19T06:01:26.778Z,19.22
2023-05-19T06:03:26.769Z,19.96
2023-05-19T06:05:26.853Z,20.45
2023-05-19T06:07:26.790Z,20.95
2023-05-19T06:09:26.959Z,20.79
2023-05-19T06:12:44.001Z,20.18
2023-05-19T06:14:43.987Z,20.31
2023-05-19T06:16:44.019Z,19.83
2023-05-19T06:18:44.033Z,19.99
2023-05-19T06:20:44.190Z,19.54
2023-05-19T06:22:43.982Z,20.23
2023-05-19T06:24:44.013Z,21.03
2023-05-19T06:28:06.096Z,21.97
2023-05-19T06:30:06.022Z,21.17
2023-05-19T06:32:06.062Z,20.96
2023-05-19T06:34:06.032Z,21.03
2023-05-19T06:36:06.070Z,21.08
2023-05-19T06:38:06.079Z,20.88
2023-05-19T06:40:06.046Z,20.68
2023-05-19T06:42:39.106Z,20.19
2023-05-19T06:44:39.160Z,20.64
2023-05-19T06:46:39.174Z,20.1
2023-05-19T06:48:39.161Z,21.11
2023-05-19T06:50:39.157Z,21.12
2023-05-19T06:52:39.187Z,20.47
2023-05-19T06:54:39.130Z,21.26
2023-05-19T06:56:39.153Z,19.96
2023-05-19T06:57:48.374Z,20.48
2023-05-19T06:59:48.364Z,21.07
2023-05-19T07:01:48.396Z,21.45
2023-05-19T07:03:48.450Z,21.24
2023-05-19T07:05:48.342Z,20.74
2023-05-19T07:07:48.371Z,21.65
2023-05-19T07:09:48.334Z,22.08
2023-05-19T07:11:48.379Z,22.16
2023-05-19T07:13:13.216Z,22.28
2023-05-19T07:15:13.197Z,22.06
2023-05-19T07:17:13.250Z,21.94
2023-05-19T07:19:13.268Z,21.93
2023-05-19T07:21:13.198Z,21.8
2023-05-19T07:23:13.588Z,22.16
2023-05-19T07:25:13.204Z,22.39
2023-05-19T07:28:12.350Z,21.82
2023-05-19T07:30:12.330Z,21.15
2023-05-19T07:32:12.364Z,21.84
2023-05-19T07:34:12.390Z,21.85
2023-05-19T07:36:12.408Z,22.31
2023-05-19T07:38:12.331Z,22.56
2023-05-19T07:40:12.491Z,22.74
2023-05-19T07:43:29.801Z,22.34
2023-05-19T07:45:29.952Z,22.76
2023-05-19T07:47:29.675Z,22.66
2023-05-19T07:49:29.636Z,22.82
2023-05-19T07:51:29.642Z,22.92
2023-05-19T07:53:29.619Z,22.17
2023-05-19T07:55:29.602Z,22.39
2023-05-19T07:58:21.849Z,22.42
2023-05-19T08:00:21.800Z,23
2023-05-19T08:02:21.897Z,23.04
2023-05-19T08:04:21.869Z,23.07
2023-05-19T08:06:21.798Z,22.98
2023-05-19T08:08:22.054Z,23.19
2023-05-19T08:10:21.858Z,23.13
2023-05-19T08:12:21.873Z,22.38
2023-05-19T08:13:32.092Z,22.78
2023-05-19T08:15:32.008Z,23.25
2023-05-19T08:17:31.919Z,23.15
2023-05-19T08:19:31.917Z,23.27
2023-05-19T08:21:31.927Z,23.18
2023-05-19T08:23:32.008Z,23.12
2023-05-19T08:25:32.003Z,23.08
2023-05-19T08:27:31.952Z,22.15
2023-05-19T08:29:15.655Z,22.68
2023-05-19T08:31:15.648Z,23.13
2023-05-19T08:33:15.625Z,23.05
2023-05-19T08:35:15.650Z,23.38
2023-05-19T08:37:15.686Z,23.33
2023-05-19T08:39:15.686Z,23.68
2023-05-19T08:41:15.631Z,24.13
2023-05-19T08:44:37.440Z,24.25
2023-05-19T08:46:37.229Z,24.07
2023-05-19T08:48:37.251Z,23.49
2023-05-19T08:50:37.190Z,22.52
2023-05-19T08:52:37.234Z,23.3
2023-05-19T08:54:37.214Z,23.71
2023-05-19T08:56:37.186Z,23.68
2023-05-19T08:59:51.007Z,24.03
2023-05-19T09:01:50.998Z,23.76
2023-05-19T09:03:51.035Z,22.82
2023-05-19T09:05:51.184Z,22.83
2023-05-19T09:07:51.041Z,23.02
2023-05-19T09:09:51.030Z,23.59
2023-05-19T09:11:53.847Z,24.21
2023-05-19T09:14:43.076Z,24.47
2023-05-19T09:16:43.116Z,24.7
2023-05-19T09:18:43.064Z,23.58
2023-05-19T09:20:43.059Z,23.37
2023-05-19T09:22:43.089Z,22.78
2023-05-19T09:24:43.045Z,22.8
2023-05-19T09:26:43.146Z,22.59
2023-05-19T09:30:05.299Z,24.13
2023-05-19T09:32:05.391Z,24.32
2023-05-19T09:34:05.342Z,23.52
2023-05-19T09:36:05.324Z,23.69
2023-05-19T09:38:05.281Z,24.11
2023-05-19T09:40:05.298Z,22.35
2023-05-19T09:42:05.361Z,23.42
2023-05-19T09:44:57.363Z,24.66
2023-05-19T09:46:57.367Z,24.79
2023-05-19T09:48:57.410Z,25
2023-05-19T09:50:57.360Z,24.23
2023-05-19T09:52:57.346Z,24.01
2023-05-19T09:54:57.343Z,24.96
2023-05-19T09:56:57.378Z,23.63
2023-05-19T09:59:52.736Z,23.58
2023-05-19T10:01:52.679Z,23.7
2023-05-19T10:03:52.739Z,23.16
2023-05-19T10:05:52.669Z,23.18
2023-05-19T10:07:52.664Z,23.1
2023-05-19T10:09:52.668Z,23.7
2023-05-19T10:11:52.679Z,22.35
2023-05-19T10:15:09.680Z,22.14
2023-05-19T10:17:09.676Z,23.44
2023-05-19T10:19:09.688Z,23.67
2023-05-19T10:21:09.667Z,23.86
2023-05-19T10:23:09.705Z,24.47
2023-05-19T10:25:09.685Z,23.81
2023-05-19T10:27:09.636Z,23.33
2023-05-19T10:30:14.390Z,24.01
2023-05-19T10:32:13.435Z,24.5
2023-05-19T10:34:13.391Z,23.88
2023-05-19T10:36:13.329Z,24.32
2023-05-19T10:38:13.385Z,25.03
2023-05-19T10:40:13.394Z,23.71
2023-05-19T10:42:13.326Z,22.49
2023-05-19T10:45:41.909Z,22.61
2023-05-19T10:47:42.048Z,23.49
2023-05-19T10:49:41.893Z,22.92
2023-05-19T10:51:41.909Z,23.43
2023-05-19T10:53:41.891Z,22.3
2023-05-19T10:55:41.918Z,22.96
2023-05-19T10:57:41.906Z,23.06
2023-05-19T11:00:51.752Z,22.11
2023-05-19T11:02:51.835Z,22.26
2023-05-19T11:04:52.188Z,22.6
2023-05-19T11:06:51.816Z,23.05
2023-05-19T11:08:51.772Z,23.3
2023-05-19T11:10:51.739Z,22.07
2023-05-19T11:12:52.072Z,21.84
2023-05-19T11:16:18.290Z,22.97
2023-05-19T11:18:18.258Z,22.99
2023-05-19T11:20:18.222Z,22.79
2023-05-19T11:22:18.254Z,23.48
2023-05-19T11:24:18.197Z,23.64
2023-05-19T11:26:18.206Z,23.4
2023-05-19T11:28:18.247Z,22.41
2023-05-19T11:30:48.891Z,22.3
2023-05-19T11:32:48.977Z,22.5
2023-05-19T11:34:48.866Z,22.42
2023-05-19T11:36:48.920Z,22.52
2023-05-19T11:38:48.882Z,23.44
2023-05-19T11:40:48.889Z,22.49
2023-05-19T11:42:48.925Z,23.05
2023-05-19T11:44:48.885Z,23.79
2023-05-19T11:46:37.679Z,22.22
2023-05-19T11:48:37.706Z,23.21
2023-05-19T11:50:37.624Z,22.9
2023-05-19T11:52:37.645Z,23.38
2023-05-19T11:54:37.628Z,22.43
2023-05-19T11:56:37.604Z,22.59
2023-05-19T11:58:37.649Z,22.1
2023-05-19T12:01:43.617Z,22.58
2023-05-19T12:03:43.858Z,21.82
2023-05-19T12:05:43.942Z,22.91
2023-05-19T12:07:43.672Z,23.5
2023-05-19T12:09:43.634Z,23.8
2023-05-19T12:11:43.622Z,23.93
2023-05-19T12:13:43.862Z,24.36
2023-05-19T12:16:27.786Z,23.35
2023-05-19T12:18:27.268Z,22.58
2023-05-19T12:20:27.263Z,23.35
2023-05-19T12:22:27.516Z,22.85
2023-05-19T12:24:27.252Z,22.15
2023-05-19T12:26:27.288Z,21.87
2023-05-19T12:28:27.396Z,22.2
2023-05-19T12:31:37.517Z,22.07
2023-05-19T12:33:37.464Z,21.98
2023-05-19T12:35:37.499Z,22.2
2023-05-19T12:37:37.517Z,22.64
2023-05-19T12:39:37.494Z,22.45
2023-05-19T12:41:37.527Z,21.85
2023-05-19T12:43:37.773Z,21.97
2023-05-19T12:47:24.475Z,22.12
2023-05-19T12:49:24.421Z,21.22
2023-05-19T12:51:24.545Z,20.77
2023-05-19T12:53:24.481Z,20.83
2023-05-19T12:55:24.492Z,20.04
2023-05-19T12:57:24.421Z,19.63
2023-05-19T12:59:37.186Z,19.32
2023-05-19T13:01:56.225Z,19.52
2023-05-19T13:03:56.385Z,19.26
2023-05-19T13:05:56.205Z,18.61
2023-05-19T13:07:56.287Z,19.14
2023-05-19T13:09:56.248Z,19.27
2023-05-19T13:11:56.247Z,18.9
2023-05-19T13:13:56.200Z,19.33
2023-05-19T13:17:13.968Z,19.7
2023-05-19T13:19:24.777Z,19.75
2023-05-19T13:21:13.744Z,20.41
2023-05-19T13:23:13.816Z,20.17
2023-05-19T13:25:13.763Z,19.82
2023-05-19T13:27:13.892Z,20.19
2023-05-19T13:29:13.748Z,20.58
2023-05-19T13:32:16.734Z,19.88
2023-05-19T13:34:16.461Z,20.07
2023-05-19T13:36:16.526Z,20.28
2023-05-19T13:38:16.482Z,19.79
2023-05-19T13:40:16.414Z,20.82
2023-05-19T13:42:16.434Z,20.96
2023-05-19T13:44:16.475Z,20.44
2023-05-19T13:47:33.708Z,21.1
2023-05-19T13:49:33.700Z,19.82
2023-05-19T13:51:33.716Z,20.28
2023-05-19T13:53:33.671Z,20.18
2023-05-19T13:55:33.749Z,20.52
2023-05-19T13:57:33.653Z,20.96
2023-05-19T13:59:33.743Z,20.21
2023-05-19T14:02:42.658Z,21.14
2023-05-19T14:04:42.451Z,20.96
2023-05-19T14:06:42.504Z,21.45
2023-05-19T14:08:42.668Z,22.08
2023-05-19T14:10:42.456Z,20.83
2023-05-19T14:12:58.432Z,20.51
2023-05-19T14:14:42.572Z,20.24
2023-05-19T14:17:40.200Z,20.7
2023-05-19T14:19:39.924Z,20.72
2023-05-19T14:21:39.980Z,20.89
2023-05-19T14:23:39.919Z,20.32
2023-05-19T14:25:40.000Z,20.17
2023-05-19T14:27:40.101Z,20.78
2023-05-19T14:29:40.254Z,20.24
2023-05-19T14:31:40.034Z,19.77
2023-05-19T14:32:52.612Z,19.87
2023-05-19T14:34:52.328Z,20.49
2023-05-19T14:36:52.391Z,20.91
2023-05-19T14:38:52.412Z,20.82
2023-05-19T14:40:52.574Z,20.79
2023-05-19T14:42:52.396Z,21.13
2023-05-19T14:44:52.303Z,20.65
2023-05-19T14:46:52.389Z,20.2
2023-05-19T14:48:26.778Z,20.28
2023-05-19T14:50:28.609Z,20.27
2023-05-19T14:52:26.858Z,20.32
2023-05-19T14:54:26.731Z,20.45
2023-05-19T14:56:26.854Z,19.81
2023-05-19T14:58:28.648Z,20.41
2023-05-19T15:00:26.793Z,20.1
2023-05-19T15:03:33.310Z,19.9
2023-05-19T15:05:33.335Z,19.62
2023-05-19T15:07:33.314Z,19.57
2023-05-19T15:09:33.283Z,19.55
2023-05-19T15:11:33.342Z,20.31
2023-05-19T15:13:33.437Z,20.84
2023-05-19T15:15:33.255Z,20.42
2023-05-19T15:18:47.994Z,20.14
2023-05-19T15:20:48.057Z,20.41
2023-05-19T15:22:47.980Z,20.79
2023-05-19T15:24:48.026Z,20.97
2023-05-19T15:26:48.006Z,20.44
2023-05-19T15:28:47.988Z,20.44
2023-05-19T15:30:48.033Z,20.45
2023-05-19T15:33:44.789Z,20.76
2023-05-19T15:35:44.791Z,20.28
2023-05-19T15:37:44.768Z,20.68
2023-05-19T15:39:44.954Z,20.8
2023-05-19T15:41:45.259Z,20.04
2023-05-19T15:43:44.964Z,20.11
2023-05-19T15:45:44.915Z,19.83
2023-05-19T15:48:46.182Z,20.15
2023-05-19T15:50:46.288Z,20.36
2023-05-19T15:52:46.149Z,20.41
2023-05-19T15:54:46.106Z,20.73
2023-05-19T15:56:46.134Z,20.96
2023-05-19T15:58:46.158Z,20.74
2023-05-19T16:00:46.349Z,20.49
2023-05-19T16:04:43.511Z,20.9
2023-05-19T16:06:43.487Z,21.03
2023-05-19T16:08:43.506Z,20.81
2023-05-19T16:10:43.473Z,21.01
2023-05-19T16:12:43.573Z,21.07
2023-05-19T16:14:43.508Z,20.77
2023-05-19T16:16:43.672Z,20.88
2023-05-19T16:19:23.657Z,21.08
2023-05-19T16:21:23.697Z,21.1
2023-05-19T16:23:23.690Z,21.15
2023-05-19T16:25:23.643Z,21.27
2023-05-19T16:27:23.724Z,21.33
2023-05-19T16:29:23.641Z,20.91
2023-05-19T16:31:23.633Z,20.9
2023-05-19T16:34:37.867Z,20.93
2023-05-19T16:36:37.818Z,21.01
2023-05-19T16:38:37.885Z,20.92
2023-05-19T16:40:38.108Z,20.99
2023-05-19T16:42:38.072Z,20.97
2023-05-19T16:44:38.110Z,20.98
2023-05-19T16:46:38.112Z,20.91
2023-05-19T16:49:56.235Z,20.79
2023-05-19T16:51:56.186Z,20.73
2023-05-19T16:53:56.291Z,20.65
2023-05-19T16:55:56.232Z,20.54
2023-05-19T16:57:56.179Z,20.45
2023-05-19T16:59:56.261Z,20.36
2023-05-19T17:01:56.250Z,20.24
2023-05-19T17:04:35.778Z,20.08
2023-05-19T17:06:35.800Z,20.04
2023-05-19T17:08:35.946Z,19.99
2023-05-19T17:10:35.783Z,19.86
2023-05-19T17:12:35.776Z,19.8
2023-05-19T17:14:35.735Z,19.69
2023-05-19T17:16:35.798Z,19.63
2023-05-19T17:18:35.782Z,19.57
2023-05-19T17:20:38.406Z,19.48
2023-05-19T17:22:38.360Z,19.44
2023-05-19T17:24:38.333Z,19.37
2023-05-19T17:26:38.357Z,19.23
2023-05-19T17:28:38.315Z,19.18
2023-05-19T17:30:38.311Z,18.99
2023-05-19T17:32:38.647Z,19.13
2023-05-19T17:35:28.489Z,19
2023-05-19T17:37:27.364Z,18.85
2023-05-19T17:39:27.385Z,18.74
2023-05-19T17:41:27.404Z,18.64
2023-05-19T17:43:27.461Z,18.52
2023-05-19T17:45:27.433Z,18.38
2023-05-19T17:47:27.404Z,18.23
2023-05-19T17:50:46.037Z,18.07
2023-05-19T17:52:45.917Z,17.97
2023-05-19T17:54:45.830Z,17.9
2023-05-19T17:56:45.786Z,17.74
2023-05-19T17:58:45.870Z,17.69
2023-05-19T18:00:45.770Z,17.62
2023-05-19T18:02:45.771Z,17.51
2023-05-19T18:05:12.961Z,17.4
2023-05-19T18:07:12.943Z,17.29
2023-05-19T18:09:12.985Z,17.21
2023-05-19T18:11:12.959Z,17.19
2023-05-19T18:13:13.067Z,17.04
2023-05-19T18:15:12.995Z,16.95
2023-05-19T18:17:12.907Z,16.94
2023-05-19T18:19:13.251Z,16.86
2023-05-19T18:21:01.067Z,16.83
2023-05-19T18:23:01.127Z,16.68
2023-05-19T18:25:01.334Z,16.7
2023-05-19T18:27:01.117Z,16.46
2023-05-19T18:29:01.212Z,16.48
2023-05-19T18:31:03.326Z,16.39
2023-05-19T18:33:01.110Z,16.23
2023-05-19T18:35:58.565Z,16.13
2023-05-19T18:37:58.757Z,16.15
2023-05-19T18:39:58.574Z,16.01
2023-05-19T18:41:58.852Z,16.04
2023-05-19T18:43:58.724Z,15.73
2023-05-19T18:45:58.777Z,15.87
2023-05-19T18:47:58.572Z,15.9
2023-05-19T18:51:24.892Z,15.87
2023-05-19T18:53:25.191Z,15.85
2023-05-19T18:55:24.947Z,15.8
2023-05-19T18:57:24.856Z,15.69
2023-05-19T18:59:25.117Z,15.58
2023-05-19T19:01:25.183Z,15.6
2023-05-19T19:03:24.873Z,15.41
2023-05-19T19:06:07.093Z,14.84
2023-05-19T19:08:07.004Z,15.07
2023-05-19T19:10:07.118Z,15.26
2023-05-19T19:12:06.998Z,15.31
2023-05-19T19:14:07.026Z,15.31
2023-05-19T19:16:07.136Z,15.24
2023-05-19T19:18:08.180Z,15.36
2023-05-19T19:21:49.964Z,14.89
2023-05-19T19:23:49.905Z,15.25
2023-05-19T19:25:50.042Z,15.32
2023-05-19T19:27:50.019Z,14.88
2023-05-19T19:29:49.948Z,15.23
2023-05-19T19:31:50.080Z,15.33
2023-05-19T19:33:50.057Z,15.18
2023-05-19T19:36:33.486Z,15.32
2023-05-19T19:38:33.467Z,15.27
2023-05-19T19:40:33.502Z,15.33
2023-05-19T19:42:33.563Z,15.26
2023-05-19T19:44:33.403Z,15.28
2023-05-19T19:46:33.397Z,15.19
2023-05-19T19:48:33.515Z,15.28
2023-05-19T19:51:50.353Z,15.28
2023-05-19T19:53:50.352Z,15.39
2023-05-19T19:55:50.298Z,15.34
2023-05-19T19:57:50.369Z,15.25
2023-05-19T19:59:50.439Z,15.15
2023-05-19T20:01:50.353Z,15.17
2023-05-19T20:03:50.454Z,15.29
2023-05-19T20:07:22.245Z,15.49
2023-05-19T20:09:22.370Z,15.52
2023-05-19T20:11:22.307Z,15.47
2023-05-19T20:13:22.212Z,15.58
2023-05-19T20:15:22.262Z,15.58
2023-05-19T20:17:22.207Z,15.6
2023-05-19T20:19:22.324Z,15.56
2023-05-19T20:21:50.163Z,15.5
2023-05-19T20:23:50.213Z,15.54
2023-05-19T20:26:02.842Z,15.53
2023-05-19T20:27:50.149Z,15.34
2023-05-19T20:29:50.257Z,15.29
2023-05-19T20:31:50.264Z,14.99
2023-05-19T20:33:50.214Z,15.03
2023-05-19T20:35:50.189Z,14.8
2023-05-19T20:37:44.605Z,14.91
2023-05-19T20:39:44.956Z,14.85
2023-05-19T20:41:44.582Z,15.07
2023-05-19T20:43:44.579Z,15.16
2023-05-19T20:45:44.886Z,15.13
2023-05-19T20:47:44.674Z,15.08
2023-05-19T20:49:44.602Z,15.17
2023-05-19T20:52:53.527Z,15.18
2023-05-19T20:54:53.273Z,15.21
2023-05-19T20:56:53.203Z,15.16
2023-05-19T20:58:53.246Z,15.13
2023-05-19T21:00:53.234Z,15.15
2023-05-19T21:02:53.353Z,15.18
2023-05-19T21:04:53.208Z,15.22
2023-05-19T21:07:32.434Z,15.29
2023-05-19T21:09:32.251Z,15.33
2023-05-19T21:11:32.270Z,15.34
2023-05-19T21:13:32.203Z,15.42
2023-05-19T21:15:32.325Z,15.42
2023-05-19T21:17:32.360Z,15.47
2023-05-19T21:19:32.246Z,14.95
2023-05-19T21:22:55.907Z,15.09
2023-05-19T21:24:55.961Z,15.29
2023-05-19T21:26:55.946Z,15.33
2023-05-19T21:28:55.901Z,15.42
2023-05-19T21:30:55.900Z,15.38
2023-05-19T21:32:55.949Z,15.5
2023-05-19T21:34:55.879Z,15.47
2023-05-19T21:38:33.410Z,15.41
2023-05-19T21:40:33.626Z,15.33
2023-05-19T21:42:33.554Z,15.28
2023-05-19T21:44:33.354Z,15.27
2023-05-19T21:46:33.399Z,15.29
2023-05-19T21:48:33.344Z,15.29
2023-05-19T21:50:33.632Z,15.31
2023-05-19T21:52:57.724Z,15.2
2023-05-19T21:54:57.733Z,15.25
2023-05-19T21:56:57.806Z,15.23
2023-05-19T21:58:57.725Z,15.25
2023-05-19T22:00:57.753Z,15.17
2023-05-19T22:02:57.770Z,15.11
2023-05-19T22:04:57.779Z,15.01
2023-05-19T22:08:32.870Z,14.96
2023-05-19T22:10:33.038Z,14.97
2023-05-19T22:12:32.859Z,14.92
2023-05-19T22:14:32.869Z,14.89
2023-05-19T22:16:32.827Z,14.89
2023-05-19T22:18:32.893Z,14.91
2023-05-19T22:20:32.984Z,14.82
2023-05-19T22:23:28.179Z,14.84
2023-05-19T22:25:28.122Z,14.85
2023-05-19T22:27:28.130Z,14.83
2023-05-19T22:29:28.225Z,14.81
2023-05-19T22:31:28.194Z,14.74
2023-05-19T22:33:28.207Z,14.73
2023-05-19T22:35:28.134Z,14.71
2023-05-19T22:38:23.244Z,14.66
2023-05-19T22:40:23.088Z,14.61
2023-05-19T22:42:23.022Z,14.62
2023-05-19T22:44:23.187Z,14.44
2023-05-19T22:46:23.041Z,14.59
2023-05-19T22:48:23.076Z,14.58
2023-05-19T22:50:23.029Z,14.55
2023-05-19T22:52:22.953Z,14.51
2023-05-19T22:54:13.110Z,14.46
2023-05-19T22:56:12.984Z,14.45
2023-05-19T22:58:12.982Z,14.43
2023-05-19T23:00:13.007Z,14.37
2023-05-19T23:02:15.949Z,14.35
2023-05-19T23:04:12.997Z,14.27
2023-05-19T23:06:12.982Z,14.22
2023-05-19T23:08:50.846Z,14.17
2023-05-19T23:10:53.703Z,14.16
2023-05-19T23:12:50.846Z,14.08
2023-05-19T23:14:50.846Z,14
2023-05-19T23:16:50.822Z,13.99
2023-05-19T23:18:50.992Z,13.97
2023-05-19T23:20:50.800Z,13.77
2023-05-19T23:24:13.938Z,13.87
2023-05-19T23:26:13.884Z,13.87
2023-05-19T23:28:13.943Z,13.8
2023-05-19T23:30:13.874Z,13.66
2023-05-19T23:32:13.869Z,13.69
2023-05-19T23:34:13.945Z,13.66
2023-05-19T23:36:13.882Z,13.62
2023-05-19T23:39:20.161Z,13.65
2023-05-19T23:41:20.127Z,13.59
2023-05-19T23:43:20.122Z,13.57
2023-05-19T23:45:20.124Z,13.53
2023-05-19T23:47:20.126Z,13.49
2023-05-19T23:49:20.151Z,13.34
2023-05-19T23:51:20.128Z,12.55
2023-05-19T23:54:38.672Z,12.89
2023-05-19T23:56:38.641Z,13.01
2023-05-19T23:58:38.604Z,13.1
